Time;durP1;ratioP1;P1;durP2;ratioP2;P2;SDS_P1;SDS_P2;PMS_P1;PMS_P2;Temp;Humidity;BMP_temperature;BMP_pressure;BME280_temperature;BME280_humidity;BME280_pressure;Samples;Min_cycle;Max_cycle;Signal;HPM_P1;HPM_P2
2021/05/20 00:00:59;;;;;;;232.05;34.25;;;;;;;;;;4955522;28;20117;-62
2021/05/20 00:03:45;;;;;;;85.78;25.83;;;;;;;;;;4983272;28;20707;-63
2021/05/20 00:06:30;;;;;;;165.70;34.63;;;;;;;;;;4968110;28;20070;-62
2021/05/20 00:09:15;;;;;;;144.40;28.73;;;;;;;;;;4978771;28;20042;-62
2021/05/20 00:12:01;;;;;;;62.33;19.23;;;;;;;;;;5020189;28;20385;-62
2021/05/20 00:14:46;;;;;;;212.85;32.03;;;;;;;;;;5007029;28;20133;-63
2021/05/20 00:17:31;;;;;;;258.70;36.83;;;;;;;;;;5008127;28;20125;-62
2021/05/20 00:20:17;;;;;;;197.75;31.13;;;;;;;;;;5013199;28;20042;-62
2021/05/20 00:23:03;;;;;;;243.55;36.17;;;;;;;;;;4990480;28;20093;-62
2021/05/20 00:25:48;;;;;;;162.85;28.92;;;;;;;;;;5003818;28;20489;-63
2021/05/20 00:28:34;;;;;;;164.90;29.50;;;;;;;;;;5002647;28;20062;-61
2021/05/20 00:31:19;;;;;;;164.80;30.05;;;;;;;;;;5003628;28;20073;-62
2021/05/20 00:34:05;;;;;;;102.22;24.63;;;;;;;;;;5023599;28;20062;-62
2021/05/20 00:36:51;;;;;;;83.88;19.77;;;;;;;;;;5023149;28;20041;-63
2021/05/20 00:39:36;;;;;;;91.60;24.15;;;;;;;;;;5021793;28;20049;-62
2021/05/20 00:42:22;;;;;;;52.72;20.55;;;;;;;;;;4983541;28;20043;-62
2021/05/20 00:45:07;;;;;;;37.20;19.42;;;;;;;;;;4983310;28;20158;-63
2021/05/20 00:47:53;;;;;;;59.38;23.75;;;;;;;;;;4984125;28;20050;-63
2021/05/20 00:50:38;;;;;;;24.40;15.13;;;;;;;;;;4993145;28;20038;-62
2021/05/20 00:53:24;;;;;;;44.47;23.15;;;;;;;;;;5023266;28;20038;-64
2021/05/20 00:56:10;;;;;;;26.58;17.85;;;;;;;;;;5022815;28;20074;-63
2021/05/20 00:58:55;;;;;;;22.17;17.48;;;;;;;;;;5022817;28;20109;-63
2021/05/20 01:01:41;;;;;;;31.70;20.55;;;;;;;;;;5012242;28;20174;-63
2021/05/20 01:04:27;;;;;;;58.42;24.40;;;;;;;;;;4989527;28;20064;-63
2021/05/20 01:07:12;;;;;;;31.05;21.63;;;;;;;;;;5015164;28;20044;-63
2021/05/20 01:09:57;;;;;;;35.90;23.88;;;;;;;;;;5003724;28;20086;-62
2021/05/20 01:12:43;;;;;;;61.97;30.17;;;;;;;;;;5019833;28;20049;-62
2021/05/20 01:15:29;;;;;;;43.80;26.13;;;;;;;;;;5024862;28;20264;-63
2021/05/20 01:18:14;;;;;;;52.10;29.10;;;;;;;;;;5011684;28;20093;-64
2021/05/20 01:20:59;;;;;;;59.00;29.65;;;;;;;;;;5009965;28;20052;-63
2021/05/20 01:23:45;;;;;;;43.42;24.63;;;;;;;;;;4987956;28;20050;-62
2021/05/20 01:26:30;;;;;;;66.43;26.90;;;;;;;;;;4989564;28;20117;-63
2021/05/20 01:29:16;;;;;;;41.10;23.70;;;;;;;;;;4988127;28;20066;-63
2021/05/20 01:32:01;;;;;;;56.53;27.20;;;;;;;;;;4997825;28;20056;-62
2021/05/20 01:34:56;;;;;;;75.10;29.88;;;;;;;;;;5027802;28;20041;-62
2021/05/20 01:37:41;;;;;;;56.55;26.05;;;;;;;;;;5013158;28;20069;-62
2021/05/20 01:40:27;;;;;;;31.98;21.30;;;;;;;;;;5014298;28;20041;-63
2021/05/20 01:43:12;;;;;;;62.08;28.30;;;;;;;;;;5017504;28;20101;-63
2021/05/20 01:45:58;;;;;;;53.35;26.83;;;;;;;;;;5008541;28;20061;-62
2021/05/20 01:48:44;;;;;;;33.45;22.48;;;;;;;;;;5008046;28;20039;-63
2021/05/20 01:51:29;;;;;;;51.22;27.42;;;;;;;;;;4992823;28;20046;-62
2021/05/20 01:54:14;;;;;;;70.18;26.55;;;;;;;;;;5010651;28;20042;-63
2021/05/20 01:57:00;;;;;;;128.57;32.45;;;;;;;;;;5028466;28;20042;-63
2021/05/20 01:59:45;;;;;;;73.38;24.52;;;;;;;;;;5028389;28;20088;-63
2021/05/20 02:02:31;;;;;;;115.35;24.65;;;;;;;;;;4999511;28;20047;-63
2021/05/20 02:05:17;;;;;;;103.18;24.25;;;;;;;;;;5007644;28;20102;-63
2021/05/20 02:08:02;;;;;;;106.32;23.40;;;;;;;;;;5007478;28;20038;-63
2021/05/20 02:10:47;;;;;;;54.03;17.30;;;;;;;;;;5006700;28;20271;-63
2021/05/20 02:13:33;;;;;;;29.75;13.43;;;;;;;;;;5013912;28;20041;-64
2021/05/20 02:16:18;;;;;;;111.15;25.00;;;;;;;;;;5028799;28;20042;-63
2021/05/20 02:19:04;;;;;;;160.73;31.38;;;;;;;;;;5028700;28;20120;-62
2021/05/20 02:21:49;;;;;;;126.80;31.48;;;;;;;;;;5028059;28;20071;-63
2021/05/20 02:24:35;;;;;;;116.47;35.58;;;;;;;;;;5002250;28;20074;-63
2021/05/20 02:27:20;;;;;;;131.93;32.05;;;;;;;;;;5008817;28;20045;-62
2021/05/20 02:30:06;;;;;;;95.72;25.80;;;;;;;;;;5008202;28;20042;-64
2021/05/20 02:32:51;;;;;;;159.48;35.58;;;;;;;;;;5009372;28;20097;-63
2021/05/20 02:35:38;;;;;;;260.70;51.55;;;;;;;;;;5023881;23;20066;-62
2021/05/20 02:38:23;;;;;;;359.20;61.42;;;;;;;;;;4974870;28;20055;-62
2021/05/20 02:41:08;;;;;;;251.93;52.20;;;;;;;;;;4974797;28;20046;-63
2021/05/20 02:43:53;;;;;;;228.13;54.55;;;;;;;;;;4975302;28;20125;-62
2021/05/20 02:46:39;;;;;;;97.30;40.13;;;;;;;;;;4937195;29;20494;-61
2021/05/20 02:49:24;;;;;;;171.45;55.70;;;;;;;;;;4937612;29;20415;-63
2021/05/20 02:52:10;;;;;;;105.97;46.45;;;;;;;;;;4937974;29;20071;-62
2021/05/20 02:54:57;;;;;;;81.40;39.05;;;;;;;;;;4948114;28;20053;-61
2021/05/20 02:57:45;;;;;;;91.00;43.67;;;;;;;;;;4974907;28;20394;-62
2021/05/20 03:00:36;;;;;;;87.10;41.97;;;;;;;;;;4975541;28;20051;-62
2021/05/20 03:03:22;;;;;;;113.03;44.67;;;;;;;;;;4976003;28;20309;-62
2021/05/20 03:06:07;;;;;;;166.30;48.53;;;;;;;;;;4964688;28;20075;-61
2021/05/20 03:08:52;;;;;;;167.43;45.35;;;;;;;;;;4942465;29;20059;-62
2021/05/20 03:11:38;;;;;;;191.98;50.00;;;;;;;;;;4937172;29;20095;-62
2021/05/20 03:14:23;;;;;;;140.63;45.15;;;;;;;;;;4937046;29;20047;-63
2021/05/20 03:17:12;;;;;;;214.38;54.67;;;;;;;;;;4971530;28;20042;-62
2021/05/20 03:19:57;;;;;;;269.33;57.22;;;;;;;;;;4976460;28;20054;-61
2021/05/20 03:22:45;;;;;;;396.17;73.55;;;;;;;;;;4976753;28;20058;-62
2021/05/20 03:25:48;;;;;;;280.13;60.28;;;;;;;;;;4974084;28;20088;-62
2021/05/20 03:28:33;;;;;;;328.33;67.47;;;;;;;;;;4974354;28;20129;-63
2021/05/20 03:31:19;;;;;;;363.38;74.60;;;;;;;;;;4975637;28;20102;-62
2021/05/20 03:34:04;;;;;;;304.77;67.78;;;;;;;;;;4977413;28;20416;-62
2021/05/20 03:36:50;;;;;;;275.52;67.22;;;;;;;;;;4968036;28;20047;-62
2021/05/20 03:39:36;;;;;;;202.30;55.50;;;;;;;;;;4957616;29;20179;-62
2021/05/20 03:42:21;;;;;;;145.55;47.60;;;;;;;;;;4957405;29;20522;-62
2021/05/20 03:45:07;;;;;;;255.18;56.85;;;;;;;;;;4943433;28;20082;-62
2021/05/20 03:47:52;;;;;;;271.17;60.03;;;;;;;;;;4956206;28;20048;-62
2021/05/20 03:50:40;;;;;;;330.48;57.95;;;;;;;;;;4957041;29;20494;-61
2021/05/20 03:53:30;;;;;;;493.40;71.88;;;;;;;;;;4956423;29;20051;-62
2021/05/20 03:56:16;;;;;;;456.67;59.75;;;;;;;;;;4965742;28;20047;-61
2021/05/20 03:59:01;;;;;;;457.95;68.60;;;;;;;;;;4977076;28;20422;-62
2021/05/20 04:01:47;;;;;;;338.08;54.40;;;;;;;;;;4975815;28;20054;-62
2021/05/20 04:04:32;;;;;;;253.13;48.40;;;;;;;;;;4961585;28;20129;-63
2021/05/20 04:07:17;;;;;;;406.08;68.78;;;;;;;;;;4962014;28;20055;-62
2021/05/20 04:10:03;;;;;;;554.30;88.38;;;;;;;;;;4956034;29;20062;-61
2021/05/20 04:12:48;;;;;;;513.22;83.60;;;;;;;;;;4956022;29;20103;-63
2021/05/20 04:15:33;;;;;;;411.17;70.75;;;;;;;;;;4955220;28;20047;-62
2021/05/20 04:18:19;;;;;;;636.38;97.55;;;;;;;;;;4948854;29;20039;-62
2021/05/20 04:21:04;;;;;;;663.00;97.65;;;;;;;;;;4954951;29;20683;-62
2021/05/20 04:23:49;;;;;;;584.33;88.03;;;;;;;;;;4955207;29;20043;-63
2021/05/20 04:26:35;;;;;;;523.13;81.55;;;;;;;;;;4957408;28;20102;-62
2021/05/20 04:29:20;;;;;;;550.92;79.75;;;;;;;;;;4966788;28;20088;-61
2021/05/20 04:32:06;;;;;;;455.83;73.43;;;;;;;;;;4974279;28;20055;-62
2021/05/20 04:34:51;;;;;;;321.00;63.35;;;;;;;;;;4973897;28;20134;-62
2021/05/20 04:37:37;;;;;;;497.33;76.22;;;;;;;;;;4965221;28;20051;-62
2021/05/20 04:40:22;;;;;;;390.02;68.65;;;;;;;;;;4954415;29;20561;-62
2021/05/20 04:43:07;;;;;;;416.15;70.18;;;;;;;;;;4954612;29;20048;-62
2021/05/20 04:45:53;;;;;;;455.05;70.75;;;;;;;;;;4954492;29;20138;-63
2021/05/20 04:48:38;;;;;;;645.92;94.68;;;;;;;;;;4960905;28;20054;-63
2021/05/20 04:51:23;;;;;;;739.38;94.38;;;;;;;;;;4973195;28;20078;-62
2021/05/20 04:54:09;;;;;;;570.72;74.22;;;;;;;;;;4973330;28;20659;-63
2021/05/20 04:56:54;;;;;;;375.55;54.97;;;;;;;;;;4973515;28;20051;-62
2021/05/20 04:59:40;;;;;;;574.50;78.75;;;;;;;;;;4956718;28;20596;-62
2021/05/20 05:02:25;;;;;;;533.05;75.90;;;;;;;;;;4957265;29;20043;-61
2021/05/20 05:05:11;;;;;;;428.27;62.53;;;;;;;;;;4957203;29;20051;-61
2021/05/20 05:07:56;;;;;;;539.88;81.15;;;;;;;;;;4943711;28;20425;-62
2021/05/20 05:10:41;;;;;;;652.13;93.70;;;;;;;;;;4956853;29;20117;-62
2021/05/20 05:13:26;;;;;;;565.42;83.68;;;;;;;;;;4957015;29;20055;-61
2021/05/20 05:16:11;;;;;;;438.45;66.60;;;;;;;;;;4957262;29;20451;-61
2021/05/20 05:18:57;;;;;;;405.80;61.75;;;;;;;;;;4963492;28;20046;-62
2021/05/20 05:21:42;;;;;;;453.35;65.07;;;;;;;;;;4957628;28;20047;-61
2021/05/20 05:24:28;;;;;;;405.92;61.17;;;;;;;;;;4956786;29;20399;-61
2021/05/20 05:27:14;;;;;;;427.88;59.97;;;;;;;;;;4956783;29;20532;-61
2021/05/20 05:29:59;;;;;;;552.35;79.03;;;;;;;;;;4957840;28;20128;-62
2021/05/20 05:32:45;;;;;;;279.38;50.05;;;;;;;;;;4955218;29;20055;-62
2021/05/20 05:35:30;;;;;;;304.92;52.15;;;;;;;;;;4941038;29;20047;-61
2021/05/20 05:38:16;;;;;;;401.55;61.63;;;;;;;;;;4943263;28;20050;-62
2021/05/20 05:41:01;;;;;;;281.42;52.63;;;;;;;;;;4928444;29;20502;-62
2021/05/20 05:43:46;;;;;;;336.52;56.60;;;;;;;;;;4956967;29;20047;-63
2021/05/20 05:46:31;;;;;;;506.83;75.90;;;;;;;;;;4958086;28;20051;-63
2021/05/20 05:49:52;;;;;;;422.92;68.30;;;;;;;;;;4956289;29;20166;-62
2021/05/20 05:52:28;;;;;;;284.17;56.75;;;;;;;;;;4941689;29;20086;-62
2021/05/20 05:55:14;;;;;;;466.83;74.38;;;;;;;;;;4956757;28;20084;-62
2021/05/20 05:57:59;;;;;;;457.98;69.55;;;;;;;;;;4961138;28;20051;-62
2021/05/20 06:00:46;;;;;;;427.63;67.57;;;;;;;;;;4973839;28;20445;-62
2021/05/20 06:03:33;;;;;;;245.07;45.65;;;;;;;;;;4975850;28;20133;-62
2021/05/20 06:06:18;;;;;;;219.73;50.53;;;;;;;;;;4935146;29;20510;-62
2021/05/20 06:09:05;;;;;;;196.05;45.63;;;;;;;;;;4935977;29;20052;-61
2021/05/20 06:11:51;;;;;;;242.38;48.70;;;;;;;;;;4922394;29;20055;-62
2021/05/20 06:14:37;;;;;;;347.60;55.53;;;;;;;;;;4936081;29;20043;-62
2021/05/20 06:17:23;;;;;;;224.00;48.80;;;;;;;;;;4938261;28;20521;-61
2021/05/20 06:20:08;;;;;;;204.98;50.45;;;;;;;;;;4973752;28;20035;-61
2021/05/20 06:22:54;;;;;;;119.40;45.28;;;;;;;;;;4956029;29;20055;-61
2021/05/20 06:25:41;;;;;;;90.57;47.15;;;;;;;;;;4941668;29;20047;-61
2021/05/20 06:28:26;;;;;;;74.70;44.00;;;;;;;;;;4958068;28;20050;-63
2021/05/20 06:31:11;;;;;;;89.72;47.33;;;;;;;;;;4975386;28;20046;-62
2021/05/20 06:33:56;;;;;;;78.40;42.38;;;;;;;;;;4961008;28;20051;-63
2021/05/20 06:36:42;;;;;;;77.43;44.40;;;;;;;;;;4976132;28;20051;-62
2021/05/20 06:39:28;;;;;;;50.42;33.42;;;;;;;;;;4936566;29;20044;-63
2021/05/20 06:42:16;;;;;;;38.67;31.48;;;;;;;;;;4954756;28;20137;-61
2021/05/20 06:45:01;;;;;;;38.92;30.73;;;;;;;;;;4975221;28;20110;-62
2021/05/20 06:47:47;;;;;;;34.35;28.88;;;;;;;;;;4944336;29;20046;-63
2021/05/20 06:50:33;;;;;;;38.17;31.30;;;;;;;;;;4957416;29;20046;-62
2021/05/20 06:53:21;;;;;;;38.13;30.83;;;;;;;;;;4968248;28;20066;-62
2021/05/20 06:56:11;;;;;;;34.83;29.45;;;;;;;;;;4973613;28;20065;-62
2021/05/20 07:02:00;;;;;;;25.70;22.98;;;;;;;;;;4956313;28;20051;-62
2021/05/20 07:04:46;;;;;;;25.85;23.33;;;;;;;;;;4953666;29;20043;-64
2021/05/20 07:07:31;;;;;;;25.90;22.13;;;;;;;;;;4964503;28;20082;-63
2021/05/20 07:10:17;;;;;;;25.85;22.58;;;;;;;;;;4947040;28;20047;-63
2021/05/20 07:13:04;;;;;;;22.02;19.77;;;;;;;;;;4975394;28;20051;-61
2021/05/20 07:15:49;;;;;;;24.02;21.63;;;;;;;;;;4956170;28;20391;-63
2021/05/20 07:18:34;;;;;;;18.08;16.35;;;;;;;;;;4955495;28;20078;-62
2021/05/20 07:21:19;;;;;;;21.77;19.50;;;;;;;;;;4966498;28;20065;-62
2021/05/20 07:24:05;;;;;;;15.40;13.80;;;;;;;;;;4954598;29;20050;-62
2021/05/20 07:26:50;;;;;;;14.13;12.63;;;;;;;;;;4971215;28;20181;-62
2021/05/20 07:29:36;;;;;;;14.30;12.80;;;;;;;;;;4954371;29;20525;-62
2021/05/20 07:32:21;;;;;;;13.43;12.07;;;;;;;;;;4959445;28;20054;-62
2021/05/20 07:35:07;;;;;;;12.73;11.40;;;;;;;;;;4973404;28;20066;-62
2021/05/20 07:37:53;;;;;;;14.40;13.00;;;;;;;;;;4978276;28;20053;-61
2021/05/20 07:40:38;;;;;;;12.15;10.90;;;;;;;;;;4979356;28;20073;-63
2021/05/20 07:43:23;;;;;;;13.18;11.93;;;;;;;;;;4984325;28;20053;-62
2021/05/20 07:46:09;;;;;;;16.08;12.88;;;;;;;;;;4974088;28;20055;-63
2021/05/20 07:48:54;;;;;;;9.32;8.43;;;;;;;;;;4954491;28;20486;-63
2021/05/20 07:51:40;;;;;;;11.32;10.23;;;;;;;;;;4954541;29;20039;-63
2021/05/20 07:54:25;;;;;;;10.20;9.20;;;;;;;;;;4940159;29;20079;-63
2021/05/20 07:57:10;;;;;;;8.85;8.00;;;;;;;;;;4947903;28;20128;-63
2021/05/20 07:59:55;;;;;;;9.90;8.40;;;;;;;;;;4973720;28;20094;-61
2021/05/20 08:05:36;;;;;;;8.60;7.70;;;;;;;;;;4971379;28;20062;-62
2021/05/20 08:08:28;;;;;;;9.27;7.65;;;;;;;;;;4958984;28;20138;-62
2021/05/20 08:11:14;;;;;;;8.32;7.53;;;;;;;;;;4973093;28;20190;-62
2021/05/20 08:13:59;;;;;;;8.95;8.02;;;;;;;;;;4973049;28;20047;-62
2021/05/20 08:16:45;;;;;;;7.45;6.68;;;;;;;;;;4959306;28;20058;-62
2021/05/20 08:19:30;;;;;;;9.07;6.85;;;;;;;;;;4984108;28;20405;-62
2021/05/20 08:22:15;;;;;;;7.13;6.43;;;;;;;;;;4993048;28;20046;-62
2021/05/20 08:25:01;;;;;;;7.55;6.85;;;;;;;;;;4992785;28;20066;-63
2021/05/20 08:27:46;;;;;;;8.38;6.90;;;;;;;;;;4991337;28;20047;-62
2021/05/20 08:30:32;;;;;;;6.75;5.82;;;;;;;;;;4992597;28;20460;-62
2021/05/20 08:33:17;;;;;;;6.80;6.05;;;;;;;;;;4979356;28;20054;-62
2021/05/20 08:36:02;;;;;;;7.45;6.68;;;;;;;;;;4966670;28;20045;-62
2021/05/20 08:38:48;;;;;;;8.23;6.18;;;;;;;;;;4980526;28;20522;-62
2021/05/20 08:41:35;;;;;;;7.28;6.32;;;;;;;;;;4977170;28;20055;-63
2021/05/20 08:44:20;;;;;;;8.07;5.65;;;;;;;;;;4975889;28;20437;-62
2021/05/20 08:47:06;;;;;;;6.43;5.38;;;;;;;;;;4951944;28;20057;-62
2021/05/20 08:49:51;;;;;;;7.68;5.53;;;;;;;;;;4974631;28;20059;-62
2021/05/20 08:52:39;;;;;;;6.72;5.00;;;;;;;;;;4960730;28;20102;-62
2021/05/20 08:55:26;;;;;;;6.30;5.68;;;;;;;;;;5000632;23;593801;-65
2021/05/20 08:58:11;;;;;;;5.32;3.92;;;;;;;;;;5014692;28;20081;-65
2021/05/20 09:00:56;;;;;;;5.03;3.40;;;;;;;;;;5002129;28;20057;-65
2021/05/20 09:03:58;;;;;;;4.32;3.03;;;;;;;;;;5013952;28;20081;-65
2021/05/20 09:06:47;;;;;;;4.13;3.13;;;;;;;;;;4985282;28;20081;-65
2021/05/20 09:09:36;;;;;;;3.90;2.75;;;;;;;;;;5000726;28;20042;-65
2021/05/20 09:12:21;;;;;;;4.05;2.70;;;;;;;;;;5013546;28;20046;-66
2021/05/20 09:15:16;;;;;;;3.90;3.03;;;;;;;;;;5015488;28;20045;-65
2021/05/20 09:18:03;;;;;;;2.97;2.72;;;;;;;;;;5015443;28;20050;-65
2021/05/20 09:20:48;;;;;;;4.25;2.53;;;;;;;;;;5013427;28;20046;-64
2021/05/20 09:23:34;;;;;;;4.13;3.00;;;;;;;;;;5015247;28;20061;-62
2021/05/20 09:26:20;;;;;;;4.80;2.53;;;;;;;;;;5013573;28;20046;-62
2021/05/20 09:29:09;;;;;;;4.50;2.15;;;;;;;;;;5015040;28;20065;-62
2021/05/20 09:31:54;;;;;;;7.70;1.92;;;;;;;;;;5015120;28;20128;-63
2021/05/20 09:34:39;;;;;;;3.67;2.30;;;;;;;;;;5013156;28;20045;-64
2021/05/20 09:37:24;;;;;;;1.85;1.67;;;;;;;;;;4990539;28;20041;-64
2021/05/20 09:40:10;;;;;;;2.10;1.50;;;;;;;;;;5001694;28;20420;-64
2021/05/20 09:42:56;;;;;;;4.93;1.40;;;;;;;;;;5014694;28;20050;-64
2021/05/20 09:45:41;;;;;;;3.05;2.50;;;;;;;;;;4988766;28;20057;-64
2021/05/20 09:48:26;;;;;;;4.18;2.90;;;;;;;;;;4995015;28;20508;-63
2021/05/20 09:51:25;;;;;;;4.07;2.13;;;;;;;;;;4994844;28;20038;-63
2021/05/20 09:54:10;;;;;;;3.35;1.83;;;;;;;;;;4994936;28;20069;-62
2021/05/20 09:56:55;;;;;;;3.08;1.60;;;;;;;;;;4992976;28;20500;-63
2021/05/20 09:59:40;;;;;;;2.60;2.15;;;;;;;;;;4994929;28;20052;-62
2021/05/20 10:02:26;;;;;;;2.85;1.40;;;;;;;;;;5010045;28;20049;-62
2021/05/20 10:05:39;;;;;;;1.65;1.08;;;;;;;;;;4995041;28;20116;-62
2021/05/20 10:08:24;;;;;;;2.35;1.15;;;;;;;;;;4994925;28;20058;-63
2021/05/20 10:11:09;;;;;;;2.88;1.38;;;;;;;;;;5012016;28;20050;-63
2021/05/20 10:13:54;;;;;;;3.72;2.67;;;;;;;;;;5013543;28;20046;-63
2021/05/20 10:16:40;;;;;;;2.92;1.80;;;;;;;;;;5007525;28;20129;-64
2021/05/20 10:19:25;;;;;;;5.85;1.73;;;;;;;;;;4994612;28;20057;-63
2021/05/20 10:22:10;;;;;;;1.42;0.65;;;;;;;;;;4986126;28;20497;-64
2021/05/20 10:24:55;;;;;;;2.80;1.50;;;;;;;;;;4988986;28;20039;-64
2021/05/20 10:27:40;;;;;;;2.95;1.95;;;;;;;;;;4979230;28;20054;-63
2021/05/20 10:30:26;;;;;;;3.35;1.77;;;;;;;;;;4998736;28;20408;-63
2021/05/20 10:33:11;;;;;;;2.63;1.50;;;;;;;;;;5008620;28;20481;-63
2021/05/20 10:35:57;;;;;;;4.00;2.15;;;;;;;;;;4993937;28;20038;-62
2021/05/20 10:38:43;;;;;;;4.05;2.20;;;;;;;;;;4997616;28;20488;-63
2021/05/20 10:41:28;;;;;;;2.72;1.85;;;;;;;;;;4999714;28;20180;-63
2021/05/20 10:44:16;;;;;;;3.03;2.53;;;;;;;;;;5003582;28;20061;-63
2021/05/20 10:47:03;;;;;;;3.60;2.13;;;;;;;;;;4965894;28;20046;-63
2021/05/20 10:49:53;;;;;;;3.00;1.90;;;;;;;;;;4995204;28;20456;-63
2021/05/20 10:52:38;;;;;;;4.15;2.55;;;;;;;;;;4993816;28;20042;-63
2021/05/20 10:55:24;;;;;;;3.10;2.13;;;;;;;;;;4993680;28;20050;-63
2021/05/20 10:58:09;;;;;;;3.65;2.92;;;;;;;;;;4992896;28;20058;-63
2021/05/20 11:00:54;;;;;;;5.45;2.92;;;;;;;;;;4996413;28;20038;-63
2021/05/20 11:03:50;;;;;;;7.78;5.15;;;;;;;;;;4981063;28;20037;-63
2021/05/20 11:06:36;;;;;;;8.80;7.93;;;;;;;;;;4980008;28;20046;-63
2021/05/20 11:09:21;;;;;;;8.63;7.70;;;;;;;;;;4994438;28;20054;-63
2021/05/20 11:12:07;;;;;;;8.70;7.90;;;;;;;;;;4992897;28;20137;-63
2021/05/20 11:14:53;;;;;;;9.43;8.52;;;;;;;;;;4978762;28;20038;-63
2021/05/20 11:17:38;;;;;;;9.30;8.40;;;;;;;;;;4945956;28;20071;-63
2021/05/20 11:20:27;;;;;;;8.80;7.88;;;;;;;;;;4973184;28;20393;-63
2021/05/20 11:23:17;;;;;;;8.70;7.40;;;;;;;;;;4959737;28;20042;-63
2021/05/20 11:26:09;;;;;;;10.77;9.48;;;;;;;;;;4966462;28;20097;-64
2021/05/20 11:28:58;;;;;;;9.13;7.63;;;;;;;;;;4993496;28;20492;-64
2021/05/20 11:31:44;;;;;;;9.15;8.35;;;;;;;;;;4987235;28;20397;-63
2021/05/20 11:37:30;;;;;;;8.13;6.22;;;;;;;;;;5010078;28;20042;-63
2021/05/20 11:40:28;;;;;;;6.68;5.97;;;;;;;;;;5012624;28;20046;-63
2021/05/20 11:43:13;;;;;;;6.68;6.00;;;;;;;;;;5012159;28;20045;-63
2021/05/20 11:45:59;;;;;;;9.27;6.95;;;;;;;;;;5011486;28;20108;-64
2021/05/20 11:49:06;;;;;;;6.97;4.55;;;;;;;;;;5012554;28;20052;-63
2021/05/20 11:51:52;;;;;;;5.25;4.43;;;;;;;;;;5011072;28;20125;-63
2021/05/20 11:54:42;;;;;;;4.78;4.22;;;;;;;;;;5012554;28;20042;-64
2021/05/20 11:57:27;;;;;;;7.47;4.85;;;;;;;;;;5010766;28;20045;-64
2021/05/20 12:00:13;;;;;;;16.33;7.55;;;;;;;;;;5012303;28;20042;-64
2021/05/20 12:02:58;;;;;;;7.05;6.35;;;;;;;;;;5012554;28;20045;-64
2021/05/20 12:05:44;;;;;;;4.97;4.40;;;;;;;;;;4996472;28;20046;-64
2021/05/20 12:08:29;;;;;;;5.60;3.42;;;;;;;;;;5002726;28;20049;-64
2021/05/20 12:11:26;;;;;;;4.88;4.25;;;;;;;;;;5004273;28;20050;-64
2021/05/20 12:14:24;;;;;;;5.90;5.22;;;;;;;;;;4992667;28;20038;-64
2021/05/20 12:17:18;;;;;;;6.30;4.93;;;;;;;;;;5010773;28;20046;-64
2021/05/20 12:20:04;;;;;;;3.92;3.50;;;;;;;;;;5011927;28;20058;-64
2021/05/20 12:22:49;;;;;;;4.20;3.50;;;;;;;;;;4992802;28;20046;-64
2021/05/20 12:25:34;;;;;;;3.67;3.00;;;;;;;;;;4992686;28;20104;-64
2021/05/20 12:28:19;;;;;;;5.30;2.97;;;;;;;;;;4992671;28;20068;-64
2021/05/20 12:31:05;;;;;;;3.00;2.35;;;;;;;;;;5002322;28;20046;-63
2021/05/20 12:33:50;;;;;;;3.08;2.20;;;;;;;;;;5011312;28;20072;-64
2021/05/20 12:36:36;;;;;;;2.63;2.42;;;;;;;;;;5010286;28;20412;-63
2021/05/20 12:39:21;;;;;;;4.07;2.85;;;;;;;;;;5012172;28;20077;-63
2021/05/20 12:42:14;;;;;;;4.20;3.50;;;;;;;;;;5009491;28;20045;-64
2021/05/20 12:45:02;;;;;;;6.30;3.42;;;;;;;;;;5010288;28;20443;-64
2021/05/20 12:47:49;;;;;;;5.05;2.83;;;;;;;;;;5010948;28;20504;-64
2021/05/20 12:50:36;;;;;;;4.95;4.18;;;;;;;;;;4972792;28;20051;-64
2021/05/20 12:53:25;;;;;;;8.35;7.55;;;;;;;;;;4972955;28;20055;-64
2021/05/20 12:56:29;;;;;;;8.75;6.80;;;;;;;;;;4995662;28;20054;-63
2021/05/20 12:59:16;;;;;;;8.57;7.22;;;;;;;;;;5011869;28;20492;-63
2021/05/20 13:02:05;;;;;;;9.23;8.32;;;;;;;;;;5008505;28;20046;-64
2021/05/20 13:04:50;;;;;;;9.85;8.00;;;;;;;;;;4991334;28;20093;-63
2021/05/20 13:07:36;;;;;;;9.27;7.55;;;;;;;;;;4992249;28;20054;-63
2021/05/20 13:10:36;;;;;;;7.18;6.47;;;;;;;;;;5004643;28;20173;-63
2021/05/20 13:13:28;;;;;;;4.72;4.10;;;;;;;;;;4990092;28;20496;-63
2021/05/20 13:16:21;;;;;;;4.20;3.47;;;;;;;;;;4984164;28;20047;-63
2021/05/20 13:22:31;;;;;;;6.75;5.32;;;;;;;;;;5013980;28;20042;-63
2021/05/20 13:25:17;;;;;;;7.80;6.28;;;;;;;;;;5015206;28;20125;-63
2021/05/20 13:28:03;;;;;;;9.70;7.40;;;;;;;;;;5002597;28;20061;-64
2021/05/20 13:30:55;;;;;;;9.02;6.97;;;;;;;;;;4994154;28;20046;-63
2021/05/20 13:33:43;;;;;;;6.93;6.22;;;;;;;;;;4994355;28;20528;-63
2021/05/20 13:36:28;;;;;;;6.80;6.10;;;;;;;;;;4966898;28;20042;-63
2021/05/20 13:39:14;;;;;;;7.60;5.93;;;;;;;;;;4995483;28;20112;-64
2021/05/20 13:41:59;;;;;;;7.88;6.70;;;;;;;;;;4976476;28;20044;-64
2021/05/20 13:44:51;;;;;;;6.75;6.15;;;;;;;;;;4975892;28;20042;-63
2021/05/20 13:47:36;;;;;;;10.60;5.25;;;;;;;;;;4996120;28;20074;-63
2021/05/20 13:50:22;;;;;;;8.13;6.13;;;;;;;;;;4974627;28;20117;-64
2021/05/20 13:53:07;;;;;;;8.02;6.65;;;;;;;;;;4983395;28;31602;-64
2021/05/20 13:55:53;;;;;;;6.55;5.85;;;;;;;;;;4993040;28;20070;-64
2021/05/20 13:58:38;;;;;;;9.93;8.93;;;;;;;;;;4980589;28;20053;-64
2021/05/20 14:01:28;;;;;;;12.52;9.90;;;;;;;;;;4980319;28;20046;-63
2021/05/20 14:04:22;;;;;;;13.18;9.77;;;;;;;;;;4994475;28;20047;-63
2021/05/20 14:07:11;;;;;;;11.65;10.45;;;;;;;;;;5006254;28;20042;-63
2021/05/20 14:09:56;;;;;;;9.43;8.35;;;;;;;;;;4999898;28;20508;-62
2021/05/20 14:12:44;;;;;;;10.48;8.50;;;;;;;;;;5014159;28;20046;-63
2021/05/20 14:15:30;;;;;;;9.77;7.65;;;;;;;;;;5014370;28;20045;-64
2021/05/20 14:18:16;;;;;;;9.65;8.38;;;;;;;;;;4999895;28;20070;-63
2021/05/20 14:21:03;;;;;;;10.00;8.95;;;;;;;;;;4994351;28;20098;-63
2021/05/20 14:23:48;;;;;;;11.38;9.70;;;;;;;;;;4994768;28;20425;-63
2021/05/20 14:26:34;;;;;;;10.68;9.55;;;;;;;;;;4994555;28;20061;-63
2021/05/20 14:29:19;;;;;;;9.77;8.88;;;;;;;;;;5001361;28;20046;-63
2021/05/20 14:32:05;;;;;;;10.98;9.88;;;;;;;;;;4999906;28;20050;-63
2021/05/20 14:34:50;;;;;;;9.63;8.68;;;;;;;;;;4993738;28;20046;-63
2021/05/20 14:37:35;;;;;;;12.32;11.02;;;;;;;;;;5011316;28;20049;-63
2021/05/20 14:40:21;;;;;;;11.82;10.63;;;;;;;;;;5005098;28;20122;-64
2021/05/20 14:43:06;;;;;;;10.90;9.80;;;;;;;;;;4965477;28;20057;-64
2021/05/20 14:45:51;;;;;;;11.65;9.93;;;;;;;;;;4974796;28;20043;-64
2021/05/20 14:48:38;;;;;;;10.77;9.68;;;;;;;;;;4975510;28;20047;-64
2021/05/20 14:51:27;;;;;;;11.38;9.45;;;;;;;;;;5012781;28;20046;-63
2021/05/20 14:54:20;;;;;;;11.73;10.13;;;;;;;;;;5007169;28;20062;-64
2021/05/20 15:06:19;;;;;;;11.32;9.82;;;;;;;;;;4993791;28;20042;-64
2021/05/20 15:09:26;;;;;;;11.85;9.38;;;;;;;;;;4979072;28;20038;-64
2021/05/20 15:12:17;;;;;;;10.95;9.70;;;;;;;;;;4994258;28;20058;-63
2021/05/20 15:15:11;;;;;;;11.93;10.63;;;;;;;;;;4992384;28;20053;-63
2021/05/20 15:18:01;;;;;;;13.23;11.57;;;;;;;;;;4988066;28;20043;-63
2021/05/20 15:20:47;;;;;;;12.60;10.85;;;;;;;;;;4993305;28;20039;-63
2021/05/20 15:23:32;;;;;;;12.63;11.32;;;;;;;;;;4993528;28;20042;-63
2021/05/20 15:26:17;;;;;;;13.48;12.07;;;;;;;;;;4983942;28;20408;-63
2021/05/20 15:29:04;;;;;;;14.07;12.18;;;;;;;;;;4993482;28;20042;-63
2021/05/20 15:31:50;;;;;;;14.82;12.50;;;;;;;;;;4979007;28;20133;-63
2021/05/20 15:34:36;;;;;;;13.13;11.82;;;;;;;;;;4979140;28;20093;-63
2021/05/20 15:37:21;;;;;;;13.75;12.38;;;;;;;;;;4965529;28;20047;-64
2021/05/20 15:40:07;;;;;;;14.70;12.38;;;;;;;;;;4993118;28;20501;-63
2021/05/20 15:42:53;;;;;;;13.38;11.98;;;;;;;;;;4985894;28;20109;-64
2021/05/20 15:45:39;;;;;;;14.82;12.38;;;;;;;;;;4972829;28;20043;-63
2021/05/20 15:51:30;;;;;;;14.65;13.07;;;;;;;;;;4994655;28;20055;-63
2021/05/20 15:54:16;;;;;;;15.23;13.68;;;;;;;;;;5005443;28;20073;-64
2021/05/20 15:57:03;;;;;;;16.77;15.02;;;;;;;;;;4995606;28;20530;-63
2021/05/20 15:59:50;;;;;;;18.13;15.88;;;;;;;;;;4981326;28;20042;-64
2021/05/20 16:02:35;;;;;;;19.15;15.57;;;;;;;;;;5001134;28;20048;-64
2021/05/20 16:05:22;;;;;;;17.63;15.75;;;;;;;;;;5011499;28;20042;-63
2021/05/20 16:08:18;;;;;;;18.92;16.17;;;;;;;;;;4993769;28;20050;-64
2021/05/20 16:11:31;;;;;;;24.38;18.77;;;;;;;;;;4972767;28;20047;-64
2021/05/20 16:17:05;;;;;;;25.20;21.02;;;;;;;;;;4982959;28;20481;-64
2021/05/20 16:19:50;;;;;;;26.00;20.58;;;;;;;;;;4999887;28;20050;-64
2021/05/20 16:22:43;;;;;;;23.60;20.15;;;;;;;;;;4975771;28;20050;-63
2021/05/20 16:25:53;;;;;;;23.85;20.23;;;;;;;;;;4986014;28;20407;-63
2021/05/20 16:37:32;;;;;;;26.25;22.55;;;;;;;;;;4992495;28;20047;-63
2021/05/20 16:40:17;;;;;;;24.80;21.45;;;;;;;;;;4978458;28;20046;-63
2021/05/20 16:43:03;;;;;;;24.95;21.92;;;;;;;;;;5012171;28;20069;-63
2021/05/20 16:45:48;;;;;;;25.48;21.52;;;;;;;;;;5008411;28;20109;-63
2021/05/20 16:48:34;;;;;;;24.73;21.65;;;;;;;;;;5004643;28;20124;-63
2021/05/20 16:51:21;;;;;;;26.33;22.30;;;;;;;;;;4971437;28;20185;-63
2021/05/20 16:54:13;;;;;;;26.83;22.25;;;;;;;;;;4983953;28;20512;-63